Flight Track Log - Related Links

Times and Time Zones

All times are in EDT time to prevent confusion due to time zone crossing. See the SWA641 flight status page for this flight to view local times or setup timezone preferences in your user account.

Time Position Orientation Groundspeed Altitude Reporting Facility
EDT Latitude Longitude Course Direction KTS MPH feet Rate Location/Type
Thu 12:49:05 PM 38.7472 -90.3203 332° Northwest 140 161 1,500  Level FAA TRACON SMA TRACON (SMA)
Thu 12:49:26 PM 38.7586 -90.3281 332° Northwest 154 177 1,900 1,463 Climbing FAA TRACON SMA TRACON (SMA)
Thu 12:49:46 PM 38.7772 -90.3367 340° North 183 211 2,500 2,250 Climbing FAA TRACON SMA TRACON (SMA)
Thu 12:50:06 PM 38.7939 -90.3450 339° North 203 234 3,400 3,150 Climbing FAA TRACON SMA TRACON (SMA)
Thu 12:50:26 PM 38.8164 -90.3483 353° North 220 253 4,600 2,923 Climbing FAA TRACON SMA TRACON (SMA)
Thu 12:50:45 PM 38.8317 -90.3314 41° Northeast 241 277 5,300 2,200 Climbing FAA TRACON SMA TRACON (SMA)
Thu 12:51:26 PM 38.8328 -90.2736 89° East 273 314 6,800 2,066 Climbing FAA TRACON SMA TRACON (SMA)
Thu 12:51:46 PM 38.8308 -90.2322 93° East 297 342 7,400 2,615 Climbing FAA TRACON SMA TRACON (SMA)
Thu 12:52:05 PM 38.8300 -90.1981 92° East 314 361 8,500 3,231 Climbing FAA TRACON SMA TRACON (SMA)
Thu 12:52:25 PM 38.8275 -90.1628 95° East 320 368 9,500 3,073 Climbing FAA TRACON SMA TRACON (SMA)
Thu 12:52:46 PM 38.8247 -90.1183 95° East 326 375 10,600 2,341 Climbing FAA TRACON SMA TRACON (SMA)
Thu 12:53:06 PM 38.8219 -90.0806 95° East 341 392 11,100 2,250 Climbing FAA TRACON SMA TRACON (SMA)
Thu 12:53:26 PM 38.8208 -90.0411 92° East 356 410 12,100 3,300 Climbing FAA TRACON SMA TRACON (SMA)
Thu 12:53:46 PM 38.8181 -89.9908 94° East 368 423 13,300 3,385 Climbing FAA TRACON SMA TRACON (SMA)
Thu 12:54:05 PM 38.8158 -89.9497 94° East 375 432 14,300 2,850 Climbing FAA TRACON SMA TRACON (SMA)
Thu 12:54:26 PM 38.8128 -89.9075 95° East 384 442 15,200 3,220 Climbing FAA TRACON SMA TRACON (SMA)
Thu 12:54:46 PM 38.8103 -89.8539 93° East 392 451 16,500 3,450 Climbing FAA TRACON SMA TRACON (SMA)
Thu 12:55:06 PM 38.8078 -89.8103 94° East 398 458 17,500 2,746 Climbing FAA TRACON SMA TRACON (SMA)
Thu 12:55:45 PM 38.8036 -89.7100 93° East 410 472 19,200 2,600 Climbing FAA TRACON SMA TRACON (SMA)
Thu 12:56:06 PM 38.8014 -89.6644 94° East 417 480 20,100 2,488 Climbing FAA TRACON SMA TRACON (SMA)
Thu 12:56:26 PM 38.7992 -89.6181 94° East 423 487 20,900 2,700 Climbing FAA TRACON SMA TRACON (SMA)
Thu 12:56:46 PM 38.7961 -89.5589 94° East 432 497 21,900 2,615 Climbing FAA TRACON SMA TRACON (SMA)
Thu 12:57:05 PM 38.7933 -89.5108 94° East 438 504 22,600 2,100 Climbing FAA TRACON SMA TRACON (SMA)
Thu 12:57:26 PM 38.7919 -89.4622 92° East 443 510 23,300 2,341 Climbing FAA TRACON SMA TRACON (SMA)
Thu 12:57:46 PM 38.7975 -89.4014 83° East 449 517 24,200 2,462 Climbing FAA TRACON SMA TRACON (SMA)
Thu 12:58:05 PM 38.8006 -89.3522 85° East 452 520 24,900 2,100 Climbing FAA TRACON SMA TRACON (SMA)
Thu 12:58:26 PM 38.8094 -89.3028 77° East 457 526 25,600 2,049 Climbing FAA TRACON SMA TRACON (SMA)
Thu 12:58:46 PM 38.8175 -89.2400 81° East 466 536 26,300 1,950 Climbing FAA TRACON SMA TRACON (SMA)
Thu 12:59:06 PM 38.8264 -89.1883 78° East 473 544 26,900 1,950 Climbing FAA TRACON SMA TRACON (SMA)
Thu 12:59:26 PM 38.8331 -89.1367 81° East 478 550 27,600 2,154 Climbing FAA TRACON SMA TRACON (SMA)
Thu 12:59:45 PM 38.8411 -89.0711 81° East 486 559 28,300 1,800 Climbing FAA TRACON SMA TRACON (SMA)
Thu 01:00:46 PM 38.8606 -88.9700 76° East 491 565 30,000 1,632 Climbing Kansas City Center
Thu 01:01:50 PM 38.8853 -88.7897 80° East 512 589 31,700 1,584 Climbing Kansas City Center
Thu 01:02:51 PM 38.9106 -88.5922 81° East 519 597 33,300 1,686 Climbing Kansas City Center
Thu 01:03:51 PM 38.9403 -88.4122 78° East 514 592 35,100 1,722 Climbing Kansas City Center
Thu 01:04:39 PM 38.9775 -88.2781 70° East 506 582 36,400 1,036 Climbing Indianapolis Center
Thu 01:05:41 PM 39.0247 -88.1061 70° East 507 583 37,000 726 Climbing Indianapolis Center
Thu 01:06:43 PM 39.0736 -87.9319 70° East 512 589 37,900 484 Climbing Indianapolis Center
Thu 01:07:45 PM 39.1214 -87.7556 71° East 517 595 38,000 532 Climbing Indianapolis Center
Thu 01:08:47 PM 39.1769 -87.5536 70° East 520 598 39,000 484 Climbing Indianapolis Center
Thu 01:09:49 PM 39.2258 -87.3775 70° East 521 600 39,000  Level Indianapolis Center
Thu 01:10:51 PM 39.2731 -87.2011 71° East 520 598 39,000  Level Indianapolis Center
Thu 01:11:53 PM 39.3300 -87.0311 67° East 514 592 39,000  Level Indianapolis Center
Thu 01:12:55 PM 39.3869 -86.8619 66° East 511 588 39,000  Level Indianapolis Center
Thu 01:13:57 PM 39.4544 -86.6639 66° East 513 590 39,000  Level Indianapolis Center
Thu 01:14:59 PM 39.5103 -86.4956 67° East 511 588 39,000  Level Indianapolis Center
Thu 01:16:01 PM 39.5650 -86.3275 67° East 511 588 39,000  Level Indianapolis Center
Thu 01:17:03 PM 39.6194 -86.1611 67° East 510 587 39,000  Level Indianapolis Center
Thu 01:18:05 PM 39.6747 -85.9942 67° East 510 587 39,000  Level Indianapolis Center
Thu 01:19:07 PM 39.7389 -85.7967 67° East 509 586 39,000  Level Indianapolis Center
Thu 01:20:09 PM 39.7939 -85.6267 67° East 509 586 39,000  Level Indianapolis Center
Thu 01:21:11 PM 39.8489 -85.4558 67° East 509 586 39,000  Level Indianapolis Center
Thu 01:22:13 PM 39.9031 -85.2828 68° East 513 590 39,000  Level Indianapolis Center
Thu 01:23:15 PM 39.9581 -85.1092 67° East 516 594 39,000  Level Indianapolis Center
Thu 01:24:17 PM 40.0117 -84.9353 68° East 516 594 39,000  Level Indianapolis Center
Thu 01:25:19 PM 40.0700 -84.7481 68° East 514 592 39,000  Level Indianapolis Center
Thu 01:26:21 PM 40.1250 -84.5742 67° East 513 590 39,000  Level Indianapolis Center
Thu 01:27:23 PM 40.1811 -84.3981 67° East 518 596 39,000  Level Indianapolis Center
Thu 01:28:25 PM 40.2328 -84.2217 69° East 515 593 39,000  Level Indianapolis Center
Thu 01:29:27 PM 40.2828 -84.0444 70° East 513 590 39,000  Level Indianapolis Center
Thu 01:30:29 PM 40.2925 -83.8197 87° East 523 602 39,000  Level Indianapolis Center
Thu 01:31:30 PM 40.2975 -83.6300 88° East 516 594 39,000  Level Indianapolis Center
Thu 01:32:32 PM 40.3025 -83.4394 88° East 517 595 39,000  Level Indianapolis Center
Thu 01:33:34 PM 40.3064 -83.2508 88° East 512 589 39,000  Level Indianapolis Center
Thu 01:34:36 PM 40.3108 -83.0608 88° East 514 592 39,000  Level Indianapolis Center
Thu 01:35:38 PM 40.3139 -82.8714 89° East 515 593 39,000  Level Indianapolis Center
Thu 01:36:40 PM 40.3175 -82.6661 89° East 516 594 39,000  Level Indianapolis Center
Thu 01:37:42 PM 40.3208 -82.4781 89° East 515 593 39,000  Level Indianapolis Center
Thu 01:38:44 PM 40.3242 -82.2875 89° East 520 598 39,000  Level Indianapolis Center
Thu 01:39:45 PM 40.3267 -82.0969 89° East 521 600 39,000  Level Indianapolis Center
Thu 01:40:47 PM 40.3275 -81.9072 90° East 519 597 39,000  Level Indianapolis Center
Thu 01:41:49 PM 40.3292 -81.7167 89° East 520 598 39,000  Level Indianapolis Center
Thu 01:42:26 PM 40.3294 -81.5961 90° East 512 589 39,000  Level Cleveland Center
Thu 01:43:26 PM 40.3311 -81.3892 89° East 512 589 39,000  Level Cleveland Center
Thu 01:44:26 PM 40.3344 -81.2014 89° East 512 589 39,000  Level Cleveland Center
Thu 01:45:26 PM 40.3353 -81.0161 90° East 512 589 39,000  Level Cleveland Center
Thu 01:46:26 PM 40.3358 -80.8283 90° East 512 589 39,000  Level Cleveland Center
Thu 01:47:26 PM 40.3361 -80.6375 90° East 512 589 39,000  Level Cleveland Center
Thu 01:48:26 PM 40.3361 -80.4497 90° East 512 589 39,000  Level Cleveland Center
Thu 01:49:26 PM 40.3314 -80.2861 92° East 512 589 39,000  Level Cleveland Center
Thu 01:50:26 PM 40.3308 -80.0983 90° East 512 589 39,000  Level Cleveland Center
Thu 01:51:26 PM 40.3300 -79.9050 90° East 519 597 39,000  Level Cleveland Center
Thu 01:52:26 PM 40.3286 -79.7169 90° East 519 597 39,000  Level Cleveland Center
Thu 01:53:26 PM 40.3269 -79.5319 91° East 514 592 39,000  Level Cleveland Center
Thu 01:54:27 PM 40.3253 -79.3414 91° East 514 592 39,000  Level Cleveland Center
Thu 01:55:26 PM 40.3206 -79.1344 92° East 514 592 39,000 -1,109 Level Cleveland Center
Thu 01:56:26 PM 40.3181 -78.9467 91° East 514 592 36,800 -2,400 Descending Cleveland Center
Thu 01:57:26 PM 40.3153 -78.7586 91° East 514 592 34,200 -2,550 Descending Cleveland Center
Thu 01:58:26 PM 40.3142 -78.5708 90° East 514 592 31,700 -2,150 Descending Cleveland Center
Thu 01:59:26 PM 40.3150 -78.3883 90° East 509 586 29,900 -1,899 Descending Cleveland Center
Thu 02:01:04 PM 40.3144 -78.1158 90° East 483 556 26,700 -1,849 Descending New York Center
Thu 02:02:05 PM 40.3100 -77.9519 92° East 465 535 25,000 -942 Descending New York Center
Thu 02:03:05 PM 40.3108 -77.7967 90° East 443 510 24,800 -458 Descending New York Center
Thu 02:04:03 PM 40.3097 -77.6389 90° East 436 502 24,100 -958 Descending New York Center
Thu 02:05:04 PM 40.3081 -77.4889 91° East 425 489 22,900 -1,488 Descending New York Center
Thu 02:06:04 PM 40.3058 -77.3389 91° East 415 478 21,100 -1,736 Descending New York Center
Thu 02:07:05 PM 40.3014 -77.1942 92° East 405 466 19,400 -1,563 Descending New York Center
Thu 02:08:03 PM 40.2964 -77.0547 93° East 392 451 18,000 -706 Descending New York Center
Thu 02:09:04 PM 40.2661 -76.9161 106° East 382 440 18,000 -49 Level New York Center
Thu 02:10:05 PM 40.2319 -76.7689 107° East 411 473 17,900 -403 Descending New York Center
Thu 02:11:03 PM 40.2011 -76.6383 107° East 417 480 17,200 -908 Descending New York Center
Thu 02:12:04 PM 40.1650 -76.4806 107° East 412 474 16,100 -1,122 Descending New York Center
Thu 02:13:06 PM 40.1306 -76.3356 107° East 403 464 14,900 -1,537 Descending FAA TRACON SMA TRACON (SMA)
Thu 02:13:26 PM 40.1194 -76.2819 105° East 400 460 14,000 -2,400 Descending FAA TRACON SMA TRACON (SMA)
Thu 02:13:46 PM 40.1144 -76.2389 99° East 390 449 13,300 -1,950 Descending FAA TRACON SMA TRACON (SMA)
Thu 02:14:06 PM 40.1136 -76.1944 91° East 396 456 12,700 -2,250 Descending FAA TRACON SMA TRACON (SMA)
Thu 02:14:26 PM 40.1094 -76.1414 96° East 386 444 11,800 -2,400 Descending FAA TRACON SMA TRACON (SMA)
Thu 02:14:46 PM 40.1075 -76.0989 93° East 383 441 11,100 -1,610 Descending FAA TRACON SMA TRACON (SMA)
Thu 02:15:07 PM 40.1036 -76.0575 97° East 376 433 10,700 -787 Descending FAA TRACON SMA TRACON (SMA)
Thu 02:15:47 PM 40.0975 -75.9700 95° East 317 365 10,300 -993 Descending FAA TRACON SMA TRACON (SMA)
Thu 02:17:32 PM 40.0833 -75.7833 96° East 300 345 8,300 -1,043 Descending Philadelphia TRACON
Thu 02:18:05 PM 40.0781 -75.7272 97° East 291 335 7,900 -839 Descending New York Center
Thu 02:19:05 PM 40.0742 -75.6239 93° East 283 326 7,000 -966 Descending New York Center
Thu 02:20:03 PM 40.0697 -75.5258 93° East 273 314 6,000 -504 Descending New York Center
Thu 02:21:04 PM 40.0633 -75.4278 95° East 273 314 6,000  Level New York Center
Thu 02:22:05 PM 40.0586 -75.3325 94° East 273 314 6,000  Level New York Center
Thu 02:22:32 PM 40.0667 -75.2833 78° East 268 308 6,000  Level Philadelphia TRACON
Thu 02:23:32 PM 40.0333 -75.2000 118° Southeast 240 276 6,000  Level Philadelphia TRACON
Thu 02:24:32 PM 40.0167 -75.1167 105° East 218 251 6,000 -400 Level Philadelphia TRACON
Thu 02:25:32 PM 40.0000 -75.0333 105° East 210 242 5,200 -800 Descending Philadelphia TRACON
Thu 02:26:32 PM 39.9833 -74.9833 113° Southeast 198 228 4,400 -650 Descending Philadelphia TRACON
Thu 02:27:32 PM 39.9333 -75.0000 194° South 191 220 3,900 -850 Descending Philadelphia TRACON
Thu 02:28:32 PM 39.9000 -75.0667 237° Southwest 185 213 2,700 -1,150 Descending Philadelphia TRACON
Thu 02:29:32 PM 39.9000 -75.1167 270° West 184 212 1,600 -950 Descending Philadelphia TRACON
Thu 02:30:32 PM 39.8833 -75.1833 252° West 131 151 800 -800 Descending Philadelphia TRACON
Thu 02:32:00 PM 39.8667 -75.2333 247° West  Level FlightAware Approximate
Thu 02:39:00 PM 39.8722 -75.2409 247° West  Level Estimated

Login

Don't have an account? Register now (free) for customized features, flight alerts, and more!